Time,TemperatureF,DewpointF,PressureIn,WindDirection,WindDirectionDegrees,WindSpeedMPH,WindSpeedGustMPH,Humidity,HourlyPrecipIn,Conditions,Clouds,dailyrainin,SoftwareType,DateUTC
2013-08-04 00:00:00,73.3,72.7,30.01,SW,234,0.0,0.0,98,0.00,,SKC,0.00,VWS V13.00,2013-08-04 05:00:00,
2013-08-04 00:01:00,73.3,72.4,30.00,SW,234,0.0,0.0,97,0.00,,SKC,0.01,VWS V13.00,2013-08-04 05:01:00,
2013-08-04 00:06:00,73.3,72.7,30.00,SW,234,0.0,0.0,98,0.00,,SKC,0.00,VWS V13.00,2013-08-04 05:06:00,
2013-08-04 00:11:00,73.3,72.7,30.00,SW,234,0.0,0.0,98,0.00,,SKC,0.00,VWS V13.00,2013-08-04 05:11:00,
2013-08-04 00:16:00,73.5,72.9,30.00,SW,234,0.0,0.0,98,0.00,,SKC,0.00,VWS V13.00,2013-08-04 05:16:00,
2013-08-04 00:21:00,73.5,72.9,30.00,SW,234,0.0,0.0,98,0.00,,SKC,0.00,VWS V13.00,2013-08-04 05:21:00,
2013-08-04 00:26:00,73.5,72.9,29.99,SW,234,0.0,0.0,98,0.00,,SKC,0.00,VWS V13.00,2013-08-04 05:26:00,
2013-08-04 00:30:00,73.4,72.8,29.99,SW,234,0.0,0.0,98,0.00,,SKC,0.00,VWS V13.00,2013-08-04 05:30:00,
2013-08-04 00:36:00,73.4,72.8,29.99,SW,234,0.0,0.0,98,0.00,,SKC,0.00,VWS V13.00,2013-08-04 05:36:00,
2013-08-04 00:40:00,73.5,72.9,29.99,SW,234,0.0,0.0,98,0.00,,SKC,0.00,VWS V13.00,2013-08-04 05:40:00,
2013-08-04 00:45:00,73.5,72.9,29.99,SW,234,0.0,0.0,98,0.00,,SKC,0.00,VWS V13.00,2013-08-04 05:45:00,
2013-08-04 00:51:00,73.5,72.9,29.99,SW,234,0.0,0.0,98,0.00,,SKC,0.00,VWS V13.00,2013-08-04 05:51:00,
2013-08-04 00:56:00,73.5,72.9,29.99,SW,234,0.0,0.0,98,0.00,,SKC,0.00,VWS V13.00,2013-08-04 05:56:00,
2013-08-04 01:00:00,73.5,72.9,29.99,SW,234,0.0,0.0,98,0.00,,SKC,0.00,VWS V13.00,2013-08-04 06:00:00,
2013-08-04 01:01:00,73.5,72.9,29.99,SW,234,0.0,0.0,98,0.00,,SKC,0.00,VWS V13.00,2013-08-04 06:01:00,
2013-08-04 01:06:00,73.5,72.9,29.99,SW,234,0.0,0.0,98,0.00,,SKC,0.00,VWS V13.00,2013-08-04 06:06:00,
2013-08-04 01:11:00,73.5,72.9,29.99,SW,234,0.0,0.0,98,0.00,,SKC,0.00,VWS V13.00,2013-08-04 06:11:00,
2013-08-04 01:15:00,73.5,72.9,29.98,SW,234,0.0,1.0,98,0.00,,SKC,0.00,VWS V13.00,2013-08-04 06:15:00,
2013-08-04 01:20:00,73.5,72.9,29.98,SW,234,0.0,1.0,98,0.00,,SKC,0.00,VWS V13.00,2013-08-04 06:20:00,
2013-08-04 01:25:00,73.5,72.9,29.98,SW,234,0.0,1.0,98,0.00,,SKC,0.00,VWS V13.00,2013-08-04 06:25:00,
2013-08-04 01:30:00,73.4,72.8,29.98,SW,234,0.0,1.0,98,0.00,,SKC,0.00,VWS V13.00,2013-08-04 06:30:00,
2013-08-04 01:35:00,73.5,72.9,29.97,SW,234,0.0,0.0,98,0.00,,SKC,0.00,VWS V13.00,2013-08-04 06:35:00,
2013-08-04 01:40:00,73.5,73.2,29.97,SW,234,0.0,0.0,99,0.00,,SKC,0.00,VWS V13.00,2013-08-04 06:40:00,
2013-08-04 01:45:00,73.6,73.3,29.97,SW,234,0.0,0.0,99,0.00,,SKC,0.00,VWS V13.00,2013-08-04 06:45:00,
2013-08-04 01:50:00,73.8,73.5,29.97,SW,234,0.0,0.0,99,0.00,,SKC,0.00,VWS V13.00,2013-08-04 06:50:00,
2013-08-04 01:55:00,73.8,73.5,29.97,SW,234,0.0,0.0,99,0.00,,SKC,0.00,VWS V13.00,2013-08-04 06:55:00,
2013-08-04 02:00:00,73.9,73.6,29.97,SW,234,0.0,0.0,99,0.00,,SKC,0.00,VWS V13.00,2013-08-04 07:00:00,
2013-08-04 02:05:00,73.9,73.6,29.98,SW,234,0.0,0.0,99,0.00,,SKC,0.00,VWS V13.00,2013-08-04 07:05:00,
2013-08-04 02:10:00,73.8,73.5,29.98,SW,234,0.0,0.0,99,0.00,,SKC,0.00,VWS V13.00,2013-08-04 07:10:00,
2013-08-04 02:15:00,73.8,73.5,29.98,SW,234,0.0,0.0,99,0.00,,SKC,0.00,VWS V13.00,2013-08-04 07:15:00,
2013-08-04 02:20:00,73.7,73.4,29.98,SW,234,0.0,0.0,99,0.00,,SKC,0.00,VWS V13.00,2013-08-04 07:20:00,
2013-08-04 02:25:00,73.7,73.1,29.98,NNW,329,0.0,0.0,98,0.00,,SKC,0.00,VWS V13.00,2013-08-04 07:25:00,
2013-08-04 02:30:00,73.6,73.0,29.98,NNW,329,0.0,0.0,98,0.00,,SKC,0.00,VWS V13.00,2013-08-04 07:30:00,
2013-08-04 02:35:00,73.5,72.9,29.98,NNW,329,0.0,0.0,98,0.00,,SKC,0.00,VWS V13.00,2013-08-04 07:35:00,
2013-08-04 02:40:00,73.5,72.9,29.98,NNW,329,0.0,0.0,98,0.00,,SKC,0.00,VWS V13.00,2013-08-04 07:40:00,
2013-08-04 02:45:00,73.5,72.9,29.98,NNW,329,0.0,0.0,98,0.00,,SKC,0.00,VWS V13.00,2013-08-04 07:45:00,
2013-08-04 02:50:00,73.4,72.8,29.98,NNW,329,0.0,0.0,98,0.00,,SKC,0.00,VWS V13.00,2013-08-04 07:50:00,
2013-08-04 02:55:00,73.4,72.8,29.98,NNW,329,0.0,0.0,98,0.00,,SKC,0.00,VWS V13.00,2013-08-04 07:55:00,
2013-08-04 03:00:00,73.4,72.8,29.98,NNW,329,0.0,0.0,98,0.00,,SKC,0.00,VWS V13.00,2013-08-04 08:00:00,
2013-08-04 03:05:00,73.4,72.8,29.98,NNW,329,0.0,0.0,98,0.00,,SKC,0.00,VWS V13.00,2013-08-04 08:05:00,
2013-08-04 03:10:00,73.5,72.9,29.98,NNW,329,0.0,0.0,98,0.00,,SKC,0.00,VWS V13.00,2013-08-04 08:10:00,
2013-08-04 03:15:00,73.5,72.9,29.98,WNW,302,0.0,0.0,98,0.00,,SKC,0.00,VWS V13.00,2013-08-04 08:15:00,
2013-08-04 03:20:00,73.4,72.8,29.98,WNW,302,0.0,0.0,98,0.00,,SKC,0.00,VWS V13.00,2013-08-04 08:20:00,
2013-08-04 03:25:00,73.3,72.7,29.98,WNW,302,0.0,0.0,98,0.00,,SKC,0.00,VWS V13.00,2013-08-04 08:25:00,
2013-08-04 03:30:00,73.3,73.0,29.98,WNW,302,0.0,0.0,99,0.00,,SKC,0.00,VWS V13.00,2013-08-04 08:30:00,
2013-08-04 03:35:00,73.3,73.0,29.98,WNW,302,0.0,0.0,99,0.00,,SKC,0.00,VWS V13.00,2013-08-04 08:35:00,
2013-08-04 03:40:00,73.3,73.0,29.98,WNW,302,0.0,0.0,99,0.00,,SKC,0.00,VWS V13.00,2013-08-04 08:40:00,
2013-08-04 03:45:00,73.4,73.1,29.98,WNW,302,0.0,0.0,99,0.00,,SKC,0.00,VWS V13.00,2013-08-04 08:45:00,
2013-08-04 03:50:00,73.4,73.1,29.98,WNW,302,0.0,0.0,99,0.00,,SKC,0.00,VWS V13.00,2013-08-04 08:50:00,
2013-08-04 03:55:00,73.5,73.2,29.98,WNW,302,0.0,0.0,99,0.00,,SKC,0.00,VWS V13.00,2013-08-04 08:55:00,
2013-08-04 04:00:00,73.5,73.2,29.98,WNW,302,0.0,0.0,99,0.00,,SKC,0.00,VWS V13.00,2013-08-04 09:00:00,
2013-08-04 04:05:00,73.5,73.2,29.98,WNW,302,0.0,0.0,99,0.00,,SKC,0.00,VWS V13.00,2013-08-04 09:05:00,
2013-08-04 04:10:00,73.5,73.2,29.98,WNW,302,0.0,0.0,99,0.00,,SKC,0.00,VWS V13.00,2013-08-04 09:10:00,
2013-08-04 04:15:00,73.5,73.2,29.98,WNW,302,0.0,0.0,99,0.00,,SKC,0.00,VWS V13.00,2013-08-04 09:15:00,
2013-08-04 04:20:00,73.5,73.2,29.98,WNW,302,0.0,0.0,99,0.00,,SKC,0.00,VWS V13.00,2013-08-04 09:20:00,
2013-08-04 04:25:00,73.5,73.2,29.98,WNW,302,0.0,0.0,99,0.00,,SKC,0.00,VWS V13.00,2013-08-04 09:25:00,
2013-08-04 04:30:00,73.6,73.3,29.98,WNW,302,0.0,0.0,99,0.00,,SKC,0.00,VWS V13.00,2013-08-04 09:30:00,
2013-08-04 04:35:00,73.7,73.4,29.98,WNW,302,0.0,0.0,99,0.00,,SKC,0.00,VWS V13.00,2013-08-04 09:35:00,
2013-08-04 04:40:00,73.7,73.4,29.98,WNW,302,0.0,0.0,99,0.00,,SKC,0.00,VWS V13.00,2013-08-04 09:40:00,
2013-08-04 04:45:00,73.7,73.4,29.98,WNW,302,0.0,0.0,99,0.00,,SKC,0.00,VWS V13.00,2013-08-04 09:45:00,
2013-08-04 04:50:00,73.8,73.5,29.98,WNW,302,0.0,0.0,99,0.00,,SKC,0.00,VWS V13.00,2013-08-04 09:50:00,
2013-08-04 04:55:00,73.8,73.5,29.98,WNW,302,0.0,0.0,99,0.00,,SKC,0.00,VWS V13.00,2013-08-04 09:55:00,
2013-08-04 05:00:00,73.8,73.5,29.98,WNW,302,0.0,0.0,99,0.00,,SKC,0.00,VWS V13.00,2013-08-04 10:00:00,
2013-08-04 05:05:00,73.8,73.5,29.98,WNW,302,0.0,0.0,99,0.00,,SKC,0.00,VWS V13.00,2013-08-04 10:05:00,
2013-08-04 05:10:00,73.8,73.5,29.98,WNW,298,0.0,0.0,99,0.00,,SKC,0.00,VWS V13.00,2013-08-04 10:10:00,
2013-08-04 05:15:00,73.7,73.4,29.98,WNW,298,0.0,0.0,99,0.00,,SKC,0.00,VWS V13.00,2013-08-04 10:15:00,
2013-08-04 05:20:00,73.8,73.5,29.98,WNW,292,0.0,1.0,99,0.00,,SKC,0.00,VWS V13.00,2013-08-04 10:20:00,
2013-08-04 05:25:00,73.7,73.4,29.99,NW,308,0.0,1.0,99,0.00,,SKC,0.00,VWS V13.00,2013-08-04 10:25:00,
2013-08-04 05:30:00,73.7,73.4,29.99,NW,312,0.0,1.0,99,0.00,,SKC,0.00,VWS V13.00,2013-08-04 10:30:00,
2013-08-04 05:35:00,73.6,73.3,29.99,NW,317,1.0,1.0,99,0.00,,SKC,0.00,VWS V13.00,2013-08-04 10:35:00,
2013-08-04 05:40:00,73.6,73.3,29.99,NW,317,0.0,1.0,99,0.00,,SKC,0.00,VWS V13.00,2013-08-04 10:40:00,
2013-08-04 05:45:00,73.5,73.2,29.99,WNW,298,0.0,1.0,99,0.00,,SKC,0.00,VWS V13.00,2013-08-04 10:45:00,
2013-08-04 05:50:00,73.5,73.2,29.99,NW,315,0.0,1.0,99,0.00,,SKC,0.00,VWS V13.00,2013-08-04 10:50:00,
2013-08-04 05:55:00,73.4,73.1,29.99,NW,315,0.0,1.0,99,0.00,,SKC,0.00,VWS V13.00,2013-08-04 10:55:00,
2013-08-04 06:00:00,73.4,73.1,29.99,NW,315,0.0,1.0,99,0.00,,SKC,0.00,VWS V13.00,2013-08-04 11:00:00,
2013-08-04 06:30:00,72.9,72.3,30.01,NW,315,0.0,0.0,98,0.00,,SKC,0.00,VWS V13.00,2013-08-04 11:30:00,
2013-08-04 07:00:00,73.1,72.8,30.01,NW,315,0.0,0.0,99,0.00,,SKC,0.00,VWS V13.00,2013-08-04 12:00:00,
2013-08-04 07:30:00,73.6,73.0,30.02,NNE,22,0.0,1.0,98,0.00,,SKC,0.00,VWS V13.00,2013-08-04 12:30:00,
2013-08-04 07:41:00,73.5,72.9,30.02,NE,46,0.0,0.0,98,0.00,,SKC,0.00,VWS V13.00,2013-08-04 12:41:00,
2013-08-04 07:46:00,73.5,72.9,30.02,NNE,28,0.0,1.0,98,0.00,,SKC,0.00,VWS V13.00,2013-08-04 12:46:00,
2013-08-04 07:52:00,73.3,72.7,30.03,NNE,29,0.0,1.0,98,0.00,,SKC,0.00,VWS V13.00,2013-08-04 12:52:00,
2013-08-04 07:57:00,73.4,72.8,30.03,NNE,15,0.0,1.0,98,0.00,,SKC,0.00,VWS V13.00,2013-08-04 12:57:00,
2013-08-04 08:00:00,73.5,72.6,30.02,NE,38,0.0,1.0,97,0.00,,SKC,0.00,VWS V13.00,2013-08-04 13:00:00,
2013-08-04 08:02:00,73.5,72.6,30.02,NE,38,0.0,1.0,97,0.00,,SKC,0.00,VWS V13.00,2013-08-04 13:02:00,
2013-08-04 08:07:00,73.5,72.6,30.03,NNW,344,5.0,9.0,97,0.00,,SKC,0.00,VWS V13.00,2013-08-04 13:07:00,
2013-08-04 08:12:00,73.6,72.4,30.03,NNE,17,5.0,9.0,96,0.00,,SKC,0.00,VWS V13.00,2013-08-04 13:12:00,
2013-08-04 08:17:00,73.9,72.7,30.03,NNE,17,5.0,9.0,96,0.00,,SKC,0.00,VWS V13.00,2013-08-04 13:17:00,
2013-08-04 08:22:00,74.1,72.6,30.03,NNE,29,4.0,9.0,95,0.00,,SKC,0.00,VWS V13.00,2013-08-04 13:22:00,
2013-08-04 08:27:00,74.5,73.3,30.03,NE,40,5.0,9.0,96,0.00,,SKC,0.00,VWS V13.00,2013-08-04 13:27:00,
2013-08-04 08:30:00,75.1,73.6,30.02,NNE,26,6.0,9.0,95,0.00,,SKC,0.00,VWS V13.00,2013-08-04 13:30:00,
2013-08-04 08:32:00,75.1,73.6,30.03,NNE,15,6.0,6.0,95,0.00,,SKC,0.00,VWS V13.00,2013-08-04 13:32:00,
2013-08-04 08:37:00,75.5,73.0,30.02,NE,39,4.0,8.0,92,0.00,,SKC,0.00,VWS V13.00,2013-08-04 13:37:00,
2013-08-04 08:42:00,75.5,73.0,30.02,North,5,2.0,8.0,92,0.00,,SKC,0.00,VWS V13.00,2013-08-04 13:42:00,
2013-08-04 08:47:00,75.3,72.8,30.02,North,360,2.0,8.0,92,0.00,,SKC,0.00,VWS V13.00,2013-08-04 13:47:00,
2013-08-04 08:52:00,75.3,72.8,30.02,NE,34,4.0,9.0,92,0.00,,SKC,0.00,VWS V13.00,2013-08-04 13:52:00,
2013-08-04 08:57:00,75.7,73.5,30.02,NE,44,5.0,9.0,93,0.00,,SKC,0.00,VWS V13.00,2013-08-04 13:57:00,
2013-08-04 09:00:00,75.9,72.8,30.02,NE,41,8.0,12.0,90,0.00,,SKC,0.00,VWS V13.00,2013-08-04 14:00:00,
2013-08-04 09:02:00,75.9,72.8,30.02,NE,41,8.0,12.0,90,0.00,,SKC,0.00,VWS V13.00,2013-08-04 14:02:00,
2013-08-04 09:07:00,76.3,73.2,30.02,NNE,31,7.0,10.0,90,0.00,,SKC,0.00,VWS V13.00,2013-08-04 14:07:00,
2013-08-04 09:12:00,77.1,73.6,30.02,NNE,26,5.0,10.0,89,0.00,,SKC,0.00,VWS V13.00,2013-08-04 14:12:00,
2013-08-04 09:17:00,77.6,72.7,30.01,North,351,4.0,10.0,85,0.00,,SKC,0.00,VWS V13.00,2013-08-04 14:17:00,
2013-08-04 09:22:00,77.6,73.1,30.02,NNW,341,4.0,10.0,86,0.00,,SKC,0.00,VWS V13.00,2013-08-04 14:22:00,
2013-08-04 09:27:00,77.7,72.5,30.02,NE,36,12.0,12.0,84,0.00,,SKC,0.00,VWS V13.00,2013-08-04 14:27:00,
2013-08-04 09:30:00,78.0,72.8,30.02,NNE,21,8.0,12.0,84,0.00,,SKC,0.00,VWS V13.00,2013-08-04 14:30:00,
2013-08-04 09:32:00,78.0,72.8,30.02,North,5,7.0,8.0,84,0.00,,SKC,0.00,VWS V13.00,2013-08-04 14:32:00,
2013-08-04 09:37:00,78.0,72.8,30.01,NNE,14,4.0,9.0,84,0.00,,SKC,0.00,VWS V13.00,2013-08-04 14:37:00,
2013-08-04 09:42:00,77.9,73.0,30.02,NE,51,6.0,9.0,85,0.00,,SKC,0.00,VWS V13.00,2013-08-04 14:42:00,
2013-08-04 09:47:00,78.2,73.3,30.02,NNE,28,8.0,9.0,85,0.00,,SKC,0.00,VWS V13.00,2013-08-04 14:47:00,
2013-08-04 09:52:00,78.6,73.0,30.02,NNE,28,7.0,10.0,83,0.00,,SKC,0.00,VWS V13.00,2013-08-04 14:52:00,
2013-08-04 09:57:00,78.3,72.7,30.02,NNE,15,4.0,12.0,83,0.00,,SKC,0.00,VWS V13.00,2013-08-04 14:57:00,
2013-08-04 10:00:00,78.4,73.5,30.02,North,9,6.0,12.0,85,0.00,,SKC,0.00,VWS V13.00,2013-08-04 15:00:00,
2013-08-04 10:02:00,78.4,73.5,30.02,NNE,16,8.0,8.0,85,0.00,,SKC,0.00,VWS V13.00,2013-08-04 15:02:00,
2013-08-04 10:07:00,78.8,72.8,30.01,NNE,19,7.0,11.0,82,0.00,,SKC,0.00,VWS V13.00,2013-08-04 15:07:00,
2013-08-04 10:12:00,79.0,73.4,30.02,NE,42,7.0,11.0,83,0.00,,SKC,0.00,VWS V13.00,2013-08-04 15:12:00,
2013-08-04 10:30:00,79.8,72.7,30.02,NNE,22,6.0,12.0,79,0.00,,SKC,0.00,VWS V13.00,2013-08-04 15:30:00,
2013-08-04 11:00:00,80.3,72.8,30.01,NNE,22,6.0,12.0,78,0.00,,SKC,0.00,VWS V13.00,2013-08-04 16:00:00,
2013-08-04 11:30:00,81.9,74.4,30.01,NE,45,6.0,11.0,78,0.00,,SKC,0.00,VWS V13.00,2013-08-04 16:30:00,
2013-08-04 12:00:00,81.8,73.5,30.01,NNE,22,6.0,16.0,76,0.00,,SKC,0.00,VWS V13.00,2013-08-04 17:00:00,
2013-08-04 12:30:00,82.5,74.2,30.00,NNE,22,6.0,11.0,76,0.00,,SKC,0.00,VWS V13.00,2013-08-04 17:30:00,
2013-08-04 13:00:00,82.6,74.7,30.00,NNE,22,5.0,12.0,77,0.00,,SKC,0.00,VWS V13.00,2013-08-04 18:00:00,
2013-08-04 13:30:00,84.2,72.9,29.99,North,0,5.0,12.0,69,0.00,,SKC,0.00,VWS V13.00,2013-08-04 18:30:00,
2013-08-04 14:00:00,84.8,73.9,29.98,North,0,5.0,12.0,70,0.00,,SKC,0.00,VWS V13.00,2013-08-04 19:00:00,
2013-08-04 14:30:00,84.0,73.6,29.97,NNW,338,4.0,9.0,71,0.00,,SKC,0.00,VWS V13.00,2013-08-04 19:30:00,
2013-08-04 15:00:00,85.6,73.8,29.97,NNW,338,5.0,10.0,68,0.00,,SKC,0.00,VWS V13.00,2013-08-04 20:00:00,
2013-08-04 15:39:00,84.8,73.1,29.95,NNW,338,6.0,12.0,68,0.00,,SKC,0.00,VWS V13.00,2013-08-04 20:39:00,
2013-08-04 15:44:00,84.6,73.3,29.95,North,9,4.0,11.0,69,0.00,,SKC,0.00,VWS V13.00,2013-08-04 20:44:00,
2013-08-04 15:49:00,83.9,73.5,29.95,North,350,4.0,11.0,71,0.00,,SKC,0.00,VWS V13.00,2013-08-04 20:49:00,
2013-08-04 15:54:00,83.5,73.1,29.95,NNE,23,2.0,11.0,71,0.00,,SKC,0.00,VWS V13.00,2013-08-04 20:54:00,
2013-08-04 15:58:00,83.6,74.0,29.95,North,355,2.0,11.0,73,0.00,,SKC,0.00,VWS V13.00,2013-08-04 20:58:00,
2013-08-04 16:04:00,84.1,74.1,29.95,NNE,32,4.0,7.0,72,0.00,,SKC,0.00,VWS V13.00,2013-08-04 21:04:00,
2013-08-04 16:09:00,84.2,73.8,29.95,NNE,24,8.0,10.0,71,0.00,,SKC,0.00,VWS V13.00,2013-08-04 21:09:00,
2013-08-04 16:14:00,83.6,73.2,29.95,North,5,1.0,10.0,71,0.00,,SKC,0.00,VWS V13.00,2013-08-04 21:14:00,
2013-08-04 16:18:00,83.4,74.2,29.95,NNE,32,1.0,10.0,74,0.00,,SKC,0.00,VWS V13.00,2013-08-04 21:18:00,
2013-08-04 16:23:00,83.9,74.3,29.95,North,5,2.0,10.0,73,0.00,,SKC,0.00,VWS V13.00,2013-08-04 21:23:00,
2013-08-04 16:28:00,83.8,73.0,29.94,North,360,8.0,10.0,70,0.00,,SKC,0.00,VWS V13.00,2013-08-04 21:28:00,
2013-08-04 16:33:00,83.1,72.3,29.95,NNW,333,1.0,8.0,70,0.00,,SKC,0.00,VWS V13.00,2013-08-04 21:33:00,
2013-08-04 16:38:00,82.6,72.7,29.95,North,5,2.0,8.0,72,0.00,,SKC,0.00,VWS V13.00,2013-08-04 21:38:00,
2013-08-04 16:43:00,82.7,72.8,29.95,NNW,344,2.0,8.0,72,0.00,,SKC,0.00,VWS V13.00,2013-08-04 21:43:00,
2013-08-04 16:48:00,83.4,73.4,29.95,North,5,2.0,8.0,72,0.00,,SKC,0.00,VWS V13.00,2013-08-04 21:48:00,
2013-08-04 16:49:00,83.4,73.4,29.95,North,10,4.0,8.0,72,0.00,,SKC,0.00,VWS V13.00,2013-08-04 21:49:00,
2013-08-04 16:53:00,83.9,73.5,29.95,NNW,336,5.0,8.0,71,0.00,,SKC,0.00,VWS V13.00,2013-08-04 21:53:00,
2013-08-04 16:59:00,84.3,73.0,29.95,North,5,6.0,10.0,69,0.00,,SKC,0.00,VWS V13.00,2013-08-04 21:59:00,
2013-08-04 17:04:00,84.4,72.7,29.95,NW,325,4.0,9.0,68,0.00,,SKC,0.00,VWS V13.00,2013-08-04 22:04:00,
2013-08-04 17:09:00,84.3,73.0,29.95,NNW,344,4.0,10.0,69,0.00,,SKC,0.00,VWS V13.00,2013-08-04 22:09:00,
2013-08-04 17:14:00,83.8,72.1,29.96,North,360,2.0,10.0,68,0.00,,SKC,0.00,VWS V13.00,2013-08-04 22:14:00,
2013-08-04 17:18:00,83.1,71.9,29.96,NNE,20,3.0,11.0,69,0.00,,SKC,0.00,VWS V13.00,2013-08-04 22:18:00,
2013-08-04 17:19:00,83.1,71.9,29.96,NNE,20,2.0,11.0,69,0.00,,SKC,0.00,VWS V13.00,2013-08-04 22:19:00,
2013-08-04 17:24:00,83.1,72.3,29.96,North,9,6.0,11.0,70,0.00,,SKC,0.00,VWS V13.00,2013-08-04 22:24:00,
2013-08-04 17:28:00,83.5,71.8,29.96,NE,37,3.0,11.0,68,0.00,,SKC,0.00,VWS V13.00,2013-08-04 22:28:00,
2013-08-04 17:34:00,83.8,72.1,29.95,North,5,6.0,9.0,68,0.00,,SKC,0.00,VWS V13.00,2013-08-04 22:34:00,
2013-08-04 17:39:00,84.0,72.7,29.96,North,5,5.0,9.0,69,0.00,,SKC,0.00,VWS V13.00,2013-08-04 22:39:00,
2013-08-04 17:43:00,83.9,71.8,29.96,NE,37,6.0,10.0,67,0.00,,SKC,0.00,VWS V13.00,2013-08-04 22:43:00,
2013-08-04 17:49:00,83.7,71.1,29.96,NNE,23,7.0,12.0,66,0.00,,SKC,0.00,VWS V13.00,2013-08-04 22:49:00,
2013-08-04 17:54:00,83.5,71.8,29.96,NNE,26,5.0,12.0,68,0.00,,SKC,0.00,VWS V13.00,2013-08-04 22:54:00,
2013-08-04 17:59:00,83.3,71.6,29.96,NNE,24,6.0,12.0,68,0.00,,SKC,0.00,VWS V13.00,2013-08-04 22:59:00,
2013-08-04 18:03:00,83.0,71.4,29.96,North,355,5.0,9.0,68,0.00,,SKC,0.00,VWS V13.00,2013-08-04 23:03:00,
2013-08-04 18:08:00,82.8,71.6,29.96,NNE,22,4.0,9.0,69,0.00,,SKC,0.00,VWS V13.00,2013-08-04 23:08:00,
2013-08-04 18:13:00,82.8,70.3,29.96,North,360,6.0,10.0,66,0.00,,SKC,0.00,VWS V13.00,2013-08-04 23:13:00,
2013-08-04 18:18:00,82.3,70.7,29.97,North,355,2.0,10.0,68,0.00,,SKC,0.00,VWS V13.00,2013-08-04 23:18:00,
2013-08-04 18:23:00,81.9,70.3,29.96,North,5,2.0,10.0,68,0.00,,SKC,0.00,VWS V13.00,2013-08-04 23:23:00,
2013-08-04 18:28:00,81.4,69.8,29.97,North,360,2.0,10.0,68,0.00,,SKC,0.00,VWS V13.00,2013-08-04 23:28:00,
2013-08-04 18:33:00,81.1,70.4,29.96,NE,34,4.0,6.0,70,0.00,,SKC,0.00,VWS V13.00,2013-08-04 23:33:00,
2013-08-04 18:38:00,81.0,70.7,29.96,NNE,26,2.0,6.0,71,0.00,,SKC,0.00,VWS V13.00,2013-08-04 23:38:00,
2013-08-04 18:43:00,80.8,70.5,29.96,North,11,4.0,6.0,71,0.00,,SKC,0.00,VWS V13.00,2013-08-04 23:43:00,
2013-08-04 18:48:00,80.5,70.7,29.96,NNE,31,3.0,6.0,72,0.00,,SKC,0.00,VWS V13.00,2013-08-04 23:48:00,
2013-08-04 18:53:00,80.1,70.3,29.97,North,5,1.0,6.0,72,0.00,,SKC,0.00,VWS V13.00,2013-08-04 23:53:00,
2013-08-04 18:58:00,79.8,70.4,29.97,NE,38,0.0,6.0,73,0.00,,SKC,0.00,VWS V13.00,2013-08-04 23:58:00,
2013-08-04 19:03:00,79.5,70.5,29.97,NNE,17,0.0,3.0,74,0.00,,SKC,0.00,VWS V13.00,2013-08-05 00:03:00,
2013-08-04 19:08:00,79.2,70.6,29.97,NNE,17,0.0,3.0,75,0.00,,SKC,0.00,VWS V13.00,2013-08-05 00:08:00,
2013-08-04 19:13:00,79.0,70.8,29.97,NNE,17,0.0,3.0,76,0.00,,SKC,0.00,VWS V13.00,2013-08-05 00:13:00,
2013-08-04 19:18:00,78.6,70.8,29.97,NNE,17,0.0,3.0,77,0.00,,SKC,0.00,VWS V13.00,2013-08-05 00:18:00,
2013-08-04 19:23:00,78.4,70.6,29.97,NNE,17,0.0,3.0,77,0.00,,SKC,0.00,VWS V13.00,2013-08-05 00:23:00,
2013-08-04 19:28:00,78.1,70.7,29.98,NNE,17,0.0,3.0,78,0.00,,SKC,0.00,VWS V13.00,2013-08-05 00:28:00,
2013-08-04 19:33:00,77.8,70.8,29.98,NNE,17,0.0,0.0,79,0.00,,SKC,0.00,VWS V13.00,2013-08-05 00:33:00,
2013-08-04 19:38:00,77.6,70.6,29.98,NNE,17,0.0,1.0,79,0.00,,SKC,0.00,VWS V13.00,2013-08-05 00:38:00,
2013-08-04 19:43:00,77.3,70.7,29.98,NNE,17,0.0,1.0,80,0.00,,SKC,0.00,VWS V13.00,2013-08-05 00:43:00,
2013-08-04 19:48:00,77.0,70.4,29.98,NNE,17,0.0,1.0,80,0.00,,SKC,0.00,VWS V13.00,2013-08-05 00:48:00,
2013-08-04 19:53:00,76.7,70.4,29.98,NNE,17,0.0,1.0,81,0.00,,SKC,0.00,VWS V13.00,2013-08-05 00:53:00,
2013-08-04 19:58:00,76.5,70.2,29.98,NNE,17,1.0,2.0,81,0.00,,SKC,0.00,VWS V13.00,2013-08-05 00:58:00,
2013-08-04 20:03:00,76.4,70.5,29.98,NNE,17,0.0,0.0,82,0.00,,SKC,0.00,VWS V13.00,2013-08-05 01:03:00,
2013-08-04 20:08:00,76.1,70.2,29.98,NNE,17,0.0,0.0,82,0.00,,SKC,0.00,VWS V13.00,2013-08-05 01:08:00,
2013-08-04 20:13:00,75.8,69.9,29.98,NNE,17,0.0,1.0,82,0.00,,SKC,0.00,VWS V13.00,2013-08-05 01:13:00,
2013-08-04 20:18:00,75.7,70.2,29.98,NNE,17,1.0,2.0,83,0.00,,SKC,0.00,VWS V13.00,2013-08-05 01:18:00,
2013-08-04 20:23:00,75.6,70.1,29.98,NNE,30,0.0,2.0,83,0.00,,SKC,0.00,VWS V13.00,2013-08-05 01:23:00,
2013-08-04 20:28:00,75.5,70.0,29.98,NNE,28,0.0,2.0,83,0.00,,SKC,0.00,VWS V13.00,2013-08-05 01:28:00,
2013-08-04 20:33:00,75.2,70.0,29.98,NNE,26,0.0,0.0,84,0.00,,SKC,0.00,VWS V13.00,2013-08-05 01:33:00,
2013-08-04 20:38:00,74.9,69.7,29.98,NNE,28,0.0,0.0,84,0.00,,SKC,0.00,VWS V13.00,2013-08-05 01:38:00,
2013-08-04 20:43:00,74.6,69.8,29.98,NNE,28,0.0,0.0,85,0.00,,SKC,0.00,VWS V13.00,2013-08-05 01:43:00,
2013-08-04 20:48:00,74.3,69.8,29.98,NNE,28,0.0,0.0,86,0.00,,SKC,0.00,VWS V13.00,2013-08-05 01:48:00,
2013-08-04 20:53:00,74.1,69.7,29.99,NNE,28,0.0,0.0,86,0.00,,SKC,0.00,VWS V13.00,2013-08-05 01:53:00,
2013-08-04 20:58:00,73.9,69.8,30.00,NNE,28,0.0,0.0,87,0.00,,SKC,0.00,VWS V13.00,2013-08-05 01:58:00,
2013-08-04 21:03:00,73.7,69.6,30.00,NNE,26,0.0,0.0,87,0.00,,SKC,0.00,VWS V13.00,2013-08-05 02:03:00,
2013-08-04 21:08:00,73.5,69.7,30.00,NNE,26,0.0,0.0,88,0.00,,SKC,0.00,VWS V13.00,2013-08-05 02:08:00,
2013-08-04 21:13:00,73.2,69.4,30.00,NNE,26,0.0,0.0,88,0.00,,SKC,0.00,VWS V13.00,2013-08-05 02:13:00,
2013-08-04 21:18:00,72.9,69.5,30.00,NNE,26,0.0,0.0,89,0.00,,SKC,0.00,VWS V13.00,2013-08-05 02:18:00,
2013-08-04 21:23:00,72.7,69.3,30.00,NNE,26,0.0,0.0,89,0.00,,SKC,0.00,VWS V13.00,2013-08-05 02:23:00,
2013-08-04 21:28:00,72.5,69.4,30.00,NNE,26,0.0,0.0,90,0.00,,SKC,0.00,VWS V13.00,2013-08-05 02:28:00,
2013-08-04 21:33:00,72.3,69.2,30.01,NNE,26,0.0,0.0,90,0.00,,SKC,0.00,VWS V13.00,2013-08-05 02:33:00,
2013-08-04 21:38:00,72.2,69.1,30.01,NNE,26,0.0,0.0,90,0.00,,SKC,0.00,VWS V13.00,2013-08-05 02:38:00,
2013-08-04 21:43:00,72.0,69.2,30.01,NNE,26,0.0,0.0,91,0.00,,SKC,0.00,VWS V13.00,2013-08-05 02:43:00,
2013-08-04 21:48:00,71.8,69.0,30.01,NNE,26,0.0,0.0,91,0.00,,SKC,0.00,VWS V13.00,2013-08-05 02:48:00,
2013-08-04 21:53:00,71.7,68.9,30.01,NNE,26,0.0,0.0,91,0.00,,SKC,0.00,VWS V13.00,2013-08-05 02:53:00,
2013-08-04 21:58:00,71.6,68.8,30.01,NNE,26,0.0,0.0,91,0.00,,SKC,0.00,VWS V13.00,2013-08-05 02:58:00,
2013-08-04 22:03:00,71.5,69.1,30.01,NNE,26,0.0,0.0,92,0.00,,SKC,0.00,VWS V13.00,2013-08-05 03:03:00,
2013-08-04 22:08:00,71.3,68.9,30.01,NNE,26,0.0,0.0,92,0.00,,SKC,0.00,VWS V13.00,2013-08-05 03:08:00,
2013-08-04 22:13:00,71.1,68.7,30.01,NNE,26,0.0,0.0,92,0.00,,SKC,0.00,VWS V13.00,2013-08-05 03:13:00,
2013-08-04 22:18:00,71.0,68.9,30.01,NNE,26,0.0,0.0,93,0.00,,SKC,0.00,VWS V13.00,2013-08-05 03:18:00,
2013-08-04 22:23:00,71.0,68.9,30.02,NNE,15,0.0,0.0,93,0.00,,SKC,0.00,VWS V13.00,2013-08-05 03:23:00,
2013-08-04 22:28:00,71.1,68.7,30.02,NNE,13,0.0,0.0,92,0.00,,SKC,0.00,VWS V13.00,2013-08-05 03:28:00,
2013-08-04 22:33:00,71.2,68.8,30.02,NNE,13,0.0,0.0,92,0.00,,SKC,0.00,VWS V13.00,2013-08-05 03:33:00,
2013-08-04 22:38:00,71.2,68.8,30.02,NE,36,0.0,0.0,92,0.00,,SKC,0.00,VWS V13.00,2013-08-05 03:38:00,
2013-08-04 22:43:00,71.0,68.6,30.02,NE,36,0.0,0.0,92,0.00,,SKC,0.00,VWS V13.00,2013-08-05 03:43:00,
2013-08-04 22:48:00,70.8,68.4,30.02,NE,36,0.0,0.0,92,0.00,,SKC,0.00,VWS V13.00,2013-08-05 03:48:00,
2013-08-04 22:53:00,70.6,68.2,30.02,NE,36,0.0,0.0,92,0.00,,SKC,0.00,VWS V13.00,2013-08-05 03:53:00,
2013-08-04 22:58:00,70.4,68.3,30.02,NE,36,0.0,0.0,93,0.00,,SKC,0.00,VWS V13.00,2013-08-05 03:58:00,
2013-08-04 23:01:00,70.3,68.5,30.02,NE,36,0.0,0.0,94,0.00,,SKC,0.00,VWS V13.00,2013-08-05 04:01:00,
2013-08-04 23:06:00,70.0,68.2,30.02,NE,36,0.0,0.0,94,0.00,,SKC,0.00,VWS V13.00,2013-08-05 04:06:00,
2013-08-04 23:11:00,69.8,68.0,30.01,NE,36,0.0,0.0,94,0.00,,SKC,0.00,VWS V13.00,2013-08-05 04:11:00,
2013-08-04 23:16:00,69.7,67.9,30.01,NE,36,0.0,0.0,94,0.00,,SKC,0.00,VWS V13.00,2013-08-05 04:16:00,
2013-08-04 23:21:00,69.4,67.9,30.01,NE,36,0.0,0.0,95,0.00,,SKC,0.00,VWS V13.00,2013-08-05 04:21:00,
2013-08-04 23:26:00,69.2,67.7,30.01,NE,36,0.0,0.0,95,0.00,,SKC,0.00,VWS V13.00,2013-08-05 04:26:00,
2013-08-04 23:31:00,69.1,67.6,30.02,NE,36,0.0,0.0,95,0.00,,SKC,0.00,VWS V13.00,2013-08-05 04:31:00,
2013-08-04 23:36:00,68.9,67.4,30.01,NE,36,0.0,0.0,95,0.00,,SKC,0.00,VWS V13.00,2013-08-05 04:36:00,
2013-08-04 23:40:00,68.7,67.2,30.02,NE,36,0.0,0.0,95,0.00,,SKC,0.00,VWS V13.00,2013-08-05 04:40:00,
2013-08-04 23:46:00,68.5,67.3,30.02,NE,36,0.0,0.0,96,0.00,,SKC,0.00,VWS V13.00,2013-08-05 04:46:00,
2013-08-04 23:51:00,68.4,66.9,30.02,NE,36,0.0,0.0,95,0.00,,SKC,0.00,VWS V13.00,2013-08-05 04:51:00,
2013-08-04 23:55:00,68.1,66.9,30.02,NE,36,0.0,0.0,96,0.00,,SKC,0.00,VWS V13.00,2013-08-05 04:55:00,